Time;durP1;ratioP1;P1;durP2;ratioP2;P2;SDS_P1;SDS_P2;PMS_P1;PMS_P2;Temp;Humidity;BMP_temperature;BMP_pressure;BME280_temperature;BME280_humidity;BME280_pressure;Samples;Min_cycle;Max_cycle;Signal;HPM_P1;HPM_P2
2022/05/18 00:00:27;;;;;;;6.93;5.80;;;18.10;99.90;;;;;;5030804;28;20198;-59
2022/05/18 00:02:57;;;;;;;6.87;6.23;;;17.90;99.90;;;;;;5030967;28;20169;-59
2022/05/18 00:05:23;;;;;;;6.60;6.00;;;17.90;99.90;;;;;;5030852;28;20196;-59
2022/05/18 00:07:49;;;;;;;6.77;5.77;;;17.90;99.90;;;;;;5030957;28;20211;-60
2022/05/18 00:10:15;;;;;;;6.67;6.07;;;17.90;99.90;;;;;;5030402;28;20236;-60
2022/05/18 00:12:46;;;;;;;6.63;6.03;;;17.80;99.90;;;;;;5034437;28;20176;-58
2022/05/18 00:15:13;;;;;;;6.47;5.80;;;17.70;99.90;;;;;;5034166;28;20191;-58
2022/05/18 00:17:38;;;;;;;6.20;5.60;;;17.60;99.90;;;;;;5034303;28;20177;-59
2022/05/18 00:20:04;;;;;;;6.63;6.03;;;17.60;99.90;;;;;;5034466;28;20265;-60
2022/05/18 00:22:30;;;;;;;7.33;5.97;;;17.50;99.90;;;;;;5034284;28;20173;-58
2022/05/18 00:24:55;;;;;;;7.40;6.70;;;17.50;99.90;;;;;;5033840;28;20211;-60
2022/05/18 00:27:21;;;;;;;6.83;6.20;;;17.50;99.90;;;;;;5034140;28;20175;-61
2022/05/18 00:29:46;;;;;;;6.63;6.03;;;17.60;99.90;;;;;;5034047;28;20564;-60
2022/05/18 00:32:12;;;;;;;7.67;6.67;;;17.50;99.90;;;;;;5034079;28;20173;-61
2022/05/18 00:34:38;;;;;;;8.03;6.77;;;17.50;99.90;;;;;;5033831;28;20180;-63
2022/05/18 00:37:04;;;;;;;8.00;7.20;;;17.50;99.90;;;;;;5033966;28;20545;-59
2022/05/18 00:39:30;;;;;;;9.40;8.53;;;17.40;99.90;;;;;;5033993;28;20195;-60
2022/05/18 00:41:55;;;;;;;9.10;8.17;;;17.50;99.90;;;;;;5033466;28;20263;-59
2022/05/18 00:44:21;;;;;;;9.47;7.60;;;17.40;99.90;;;;;;5033546;28;20175;-59
2022/05/18 00:46:47;;;;;;;8.07;7.30;;;17.40;99.90;;;;;;5033609;28;20557;-61
2022/05/18 00:49:12;;;;;;;7.70;7.00;;;17.40;99.90;;;;;;5033795;28;20194;-61
2022/05/18 00:51:49;;;;;;;8.83;8.00;;;17.40;99.90;;;;;;5033756;28;20172;-59
2022/05/18 00:54:24;;;;;;;8.50;7.33;;;17.40;99.90;;;;;;5033509;28;20182;-60
2022/05/18 00:57:02;;;;;;;7.13;6.43;;;17.30;99.90;;;;;;5033603;28;20255;-58
2022/05/18 00:59:42;;;;;;;8.00;7.07;;;17.30;99.90;;;;;;5033571;28;20289;-61
2022/05/18 01:02:09;;;;;;;7.77;6.97;;;17.30;99.90;;;;;;5033593;28;20572;-59
2022/05/18 01:04:36;;;;;;;10.63;6.20;;;17.20;99.90;;;;;;5033304;28;20192;-60
2022/05/18 01:07:19;;;;;;;7.73;7.03;;;17.10;99.90;;;;;;5048748;28;20278;-57
2022/05/18 01:09:49;;;;;;;11.13;7.10;;;17.10;99.90;;;;;;5033261;28;20202;-60
2022/05/18 01:12:18;;;;;;;8.77;7.40;;;17.10;99.90;;;;;;5033369;28;20199;-61
2022/05/18 01:15:03;;;;;;;8.07;7.27;;;17.10;99.90;;;;;;5033059;28;20168;-60
2022/05/18 01:17:35;;;;;;;8.30;7.50;;;17.10;99.90;;;;;;5033239;28;20214;-62
2022/05/18 01:20:10;;;;;;;8.63;7.83;;;17.00;99.90;;;;;;5033115;28;20246;-62
2022/05/18 01:22:36;;;;;;;10.40;9.40;;;17.00;99.90;;;;;;5032448;28;20176;-62
2022/05/18 01:25:28;;;;;;;9.77;8.87;;;16.90;99.90;;;;;;5032750;28;20597;-58
2022/05/18 01:27:56;;;;;;;10.97;9.87;;;17.00;99.90;;;;;;5033018;28;20672;-59
2022/05/18 01:30:22;;;;;;;10.70;9.67;;;16.90;99.90;;;;;;5032972;28;20191;-61
2022/05/18 01:32:51;;;;;;;10.77;9.77;;;17.00;99.90;;;;;;5048247;28;20180;-59
2022/05/18 01:35:20;;;;;;;11.87;10.80;;;17.00;99.90;;;;;;5032636;28;20218;-59
2022/05/18 01:37:46;;;;;;;11.60;10.50;;;17.00;99.90;;;;;;5048138;28;20251;-63
2022/05/18 01:40:41;;;;;;;10.47;9.53;;;17.00;99.90;;;;;;5032712;28;20192;-60
2022/05/18 01:43:51;;;;;;;11.33;9.10;;;17.00;99.90;;;;;;5032624;28;20502;-62
2022/05/18 01:46:20;;;;;;;11.03;9.93;;;16.90;99.90;;;;;;5028743;28;20212;-60
2022/05/18 01:48:49;;;;;;;10.93;9.83;;;16.90;99.90;;;;;;5047677;28;20168;-58
2022/05/18 01:51:43;;;;;;;12.20;11.00;;;16.90;99.90;;;;;;5047816;28;20172;-63
2022/05/18 01:54:08;;;;;;;11.73;10.50;;;16.90;99.90;;;;;;5047565;28;20214;-61
2022/05/18 01:56:34;;;;;;;10.83;9.73;;;16.80;99.90;;;;;;5032616;28;20208;-60
2022/05/18 01:59:00;;;;;;;9.60;8.80;;;16.80;99.90;;;;;;5032408;28;20179;-62
2022/05/18 02:01:26;;;;;;;9.40;8.50;;;16.80;99.90;;;;;;5032331;28;20271;-62
2022/05/18 02:03:51;;;;;;;9.27;8.37;;;16.80;99.90;;;;;;5032181;28;20210;-62
2022/05/18 02:06:17;;;;;;;9.37;8.53;;;16.80;99.90;;;;;;5032128;28;20235;-58
2022/05/18 02:08:43;;;;;;;8.83;7.83;;;16.80;99.90;;;;;;5032340;28;20712;-60
2022/05/18 02:11:20;;;;;;;8.33;7.53;;;16.70;99.90;;;;;;5032249;28;20191;-58
2022/05/18 02:13:46;;;;;;;8.10;7.30;;;16.70;99.90;;;;;;5031981;28;20597;-58
2022/05/18 02:16:12;;;;;;;7.83;7.03;;;16.60;99.90;;;;;;5032206;28;20525;-60
2022/05/18 02:18:37;;;;;;;9.23;8.43;;;16.60;99.90;;;;;;5031943;28;20188;-59
2022/05/18 02:21:05;;;;;;;11.70;10.57;;;16.50;99.90;;;;;;5032008;28;20203;-59
2022/05/18 02:23:31;;;;;;;11.47;10.20;;;16.50;99.90;;;;;;5031654;28;20571;-57
2022/05/18 02:25:58;;;;;;;10.70;9.50;;;16.50;99.90;;;;;;5031611;28;20203;-62
2022/05/18 02:28:25;;;;;;;10.23;9.30;;;16.40;99.90;;;;;;5032031;28;20192;-59
2022/05/18 02:30:50;;;;;;;9.93;8.93;;;16.40;99.90;;;;;;5031810;28;20211;-60
2022/05/18 02:33:16;;;;;;;10.17;9.17;;;16.40;99.90;;;;;;5031855;28;20176;-60
2022/05/18 02:35:41;;;;;;;11.73;10.63;;;16.50;99.90;;;;;;5031647;28;20180;-60
2022/05/18 02:38:07;;;;;;;12.03;10.83;;;16.30;99.90;;;;;;5031756;28;20253;-60
2022/05/18 02:40:33;;;;;;;12.17;10.87;;;16.30;99.90;;;;;;5031756;28;20199;-60
2022/05/18 02:42:59;;;;;;;11.40;10.40;;;16.20;99.90;;;;;;5031753;28;20548;-60
2022/05/18 02:45:24;;;;;;;11.10;10.00;;;16.20;99.90;;;;;;5031386;28;20203;-62
2022/05/18 02:47:50;;;;;;;9.83;8.87;;;16.20;99.90;;;;;;5031510;28;20180;-62
2022/05/18 02:50:16;;;;;;;9.53;8.63;;;16.10;99.90;;;;;;5031654;28;20252;-57
2022/05/18 02:52:42;;;;;;;9.70;8.80;;;16.20;99.90;;;;;;5031761;28;20176;-59
2022/05/18 02:57:53;;;;;;;9.50;8.60;;;16.10;99.90;;;;;;5031560;28;20214;-59
2022/05/18 03:00:19;;;;;;;11.73;8.60;;;16.00;99.90;;;;;;5031546;28;20228;-62
2022/05/18 03:02:44;;;;;;;10.00;8.63;;;16.00;99.90;;;;;;5031550;28;20282;-59
2022/05/18 03:05:10;;;;;;;9.30;8.40;;;16.00;99.90;;;;;;5031216;28;20286;-57
2022/05/18 03:07:36;;;;;;;10.87;9.87;;;16.00;99.90;;;;;;5031480;28;20579;-62
2022/05/18 03:10:02;;;;;;;11.23;10.23;;;16.00;99.90;;;;;;5031243;28;20235;-62
2022/05/18 03:12:28;;;;;;;12.50;11.23;;;16.00;99.90;;;;;;5031452;28;20560;-61
2022/05/18 03:14:54;;;;;;;11.93;10.93;;;16.00;99.90;;;;;;5031088;28;20184;-59
2022/05/18 03:17:20;;;;;;;12.50;11.30;;;15.90;99.90;;;;;;5031412;28;20265;-60
2022/05/18 03:19:45;;;;;;;11.97;10.80;;;16.00;99.90;;;;;;5031328;28;20226;-60
2022/05/18 03:24:55;;;;;;;12.97;11.77;;;15.90;99.90;;;;;;5030976;28;20215;-60
2022/05/18 03:27:20;;;;;;;12.57;11.37;;;15.90;99.90;;;;;;5031237;28;20176;-60
2022/05/18 03:29:46;;;;;;;13.17;10.93;;;15.90;99.90;;;;;;5031254;28;20542;-58
2022/05/18 03:32:12;;;;;;;12.27;10.93;;;15.80;99.90;;;;;;5031300;28;20172;-62
2022/05/18 03:34:37;;;;;;;12.47;11.27;;;15.90;99.90;;;;;;5031017;28;20221;-59
2022/05/18 03:37:03;;;;;;;10.77;9.77;;;15.90;99.90;;;;;;5046451;28;20195;-60
2022/05/18 03:39:29;;;;;;;10.27;9.33;;;15.80;99.90;;;;;;5031033;28;20745;-56
2022/05/18 03:41:55;;;;;;;10.70;9.70;;;15.90;99.90;;;;;;5031233;28;20708;-61
2022/05/18 03:44:21;;;;;;;11.80;10.70;;;15.90;99.90;;;;;;5030897;28;20164;-58
2022/05/18 03:46:47;;;;;;;11.17;10.10;;;15.90;99.90;;;;;;5033510;28;20175;-61
2022/05/18 03:49:12;;;;;;;11.77;10.33;;;15.90;99.90;;;;;;5034927;28;20262;-60
2022/05/18 03:51:38;;;;;;;11.30;9.93;;;15.80;99.90;;;;;;5034912;28;20704;-60
2022/05/18 03:54:06;;;;;;;10.93;9.93;;;15.80;99.90;;;;;;5034640;28;20511;-59
2022/05/18 03:56:31;;;;;;;10.03;9.10;;;15.70;99.90;;;;;;5034784;28;20187;-59
2022/05/18 03:58:57;;;;;;;10.17;9.13;;;15.70;99.90;;;;;;5034704;28;20176;-59
2022/05/18 04:01:22;;;;;;;10.13;8.67;;;15.70;99.90;;;;;;5034796;28;20199;-60
2022/05/18 04:03:48;;;;;;;10.47;9.47;;;15.70;99.90;;;;;;5049819;28;20198;-59
2022/05/18 04:06:15;;;;;;;11.27;10.27;;;15.70;99.90;;;;;;5034585;28;20290;-59
2022/05/18 04:08:40;;;;;;;13.67;12.27;;;15.70;99.90;;;;;;5034566;28;20177;-61
2022/05/18 04:11:07;;;;;;;12.73;11.53;;;15.70;99.90;;;;;;5034356;28;20331;-59
2022/05/18 04:13:32;;;;;;;12.33;11.13;;;15.70;99.90;;;;;;5034252;28;20250;-60
2022/05/18 04:15:59;;;;;;;11.27;10.27;;;15.70;99.90;;;;;;5034526;28;20660;-61
2022/05/18 04:18:24;;;;;;;9.47;8.57;;;15.70;99.90;;;;;;5034542;28;20642;-62
2022/05/18 04:20:52;;;;;;;10.20;8.73;;;15.70;99.90;;;;;;5031412;28;20237;-65
2022/05/18 04:23:18;;;;;;;9.20;8.30;;;15.70;99.90;;;;;;5027308;28;20184;-61
2022/05/18 04:25:45;;;;;;;9.23;7.47;;;15.70;99.90;;;;;;5033735;28;20281;-58
2022/05/18 04:28:14;;;;;;;8.27;7.33;;;15.80;99.90;;;;;;5034022;28;20660;-60
2022/05/18 04:30:42;;;;;;;7.80;6.80;;;15.80;99.90;;;;;;5034029;28;20198;-62
2022/05/18 04:33:09;;;;;;;7.10;6.50;;;15.80;99.90;;;;;;5032951;28;20168;-59
2022/05/18 04:35:34;;;;;;;7.77;6.43;;;15.80;99.90;;;;;;5033736;28;20186;-62
2022/05/18 04:38:00;;;;;;;6.90;6.30;;;15.90;99.90;;;;;;5033799;28;20540;-61
2022/05/18 04:40:25;;;;;;;6.87;6.13;;;15.90;99.90;;;;;;5033740;28;20821;-64
2022/05/18 04:42:51;;;;;;;8.60;6.30;;;16.00;99.90;;;;;;5033898;28;20553;-61
2022/05/18 04:45:19;;;;;;;7.10;6.20;;;16.10;99.90;;;;;;5033239;28;20199;-62
2022/05/18 04:47:45;;;;;;;7.23;5.70;;;16.00;99.90;;;;;;5033763;28;20238;-58
2022/05/18 04:50:12;;;;;;;6.80;5.77;;;16.10;99.90;;;;;;5033956;28;20553;-58
2022/05/18 04:52:37;;;;;;;6.47;5.80;;;16.10;99.90;;;;;;5033962;28;20199;-54
2022/05/18 04:55:03;;;;;;;6.53;5.93;;;16.20;99.90;;;;;;5033788;28;20171;-60
2022/05/18 04:57:29;;;;;;;7.63;6.37;;;16.20;99.90;;;;;;5032712;28;20176;-55
2022/05/18 04:59:55;;;;;;;7.20;6.17;;;16.20;99.90;;;;;;5033528;28;20738;-59
2022/05/18 05:02:20;;;;;;;7.37;6.67;;;16.30;99.90;;;;;;5033649;28;20172;-57
2022/05/18 05:04:46;;;;;;;6.80;6.10;;;16.30;99.90;;;;;;5033259;28;20278;-56
2022/05/18 05:07:12;;;;;;;6.77;6.00;;;16.40;99.90;;;;;;5033182;28;20306;-57
2022/05/18 05:09:38;;;;;;;7.27;6.57;;;16.50;99.90;;;;;;5033447;28;20211;-61
2022/05/18 05:12:05;;;;;;;6.50;5.90;;;16.50;99.90;;;;;;5033434;28;20172;-59
2022/05/18 05:14:33;;;;;;;6.60;6.00;;;16.60;99.90;;;;;;5033129;28;20536;-57
2022/05/18 05:17:00;;;;;;;6.77;6.17;;;16.70;99.90;;;;;;5033228;28;20226;-57
2022/05/18 05:19:26;;;;;;;8.63;6.47;;;16.80;99.90;;;;;;5032720;28;20184;-60
2022/05/18 05:21:52;;;;;;;7.13;6.43;;;16.90;99.90;;;;;;5032901;28;20203;-61
2022/05/18 05:24:18;;;;;;;7.50;6.37;;;17.00;99.90;;;;;;5032850;28;20552;-57
2022/05/18 05:26:44;;;;;;;6.70;6.10;;;17.10;99.90;;;;;;5033158;28;20207;-57
2022/05/18 05:29:11;;;;;;;6.77;6.07;;;17.20;99.90;;;;;;5032869;28;20192;-56
2022/05/18 05:31:38;;;;;;;6.30;5.70;;;17.20;99.90;;;;;;5033124;28;20178;-58
2022/05/18 05:34:04;;;;;;;6.17;5.50;;;17.30;99.90;;;;;;5015052;28;20165;-60
2022/05/18 05:36:30;;;;;;;5.60;5.10;;;17.30;99.90;;;;;;5016584;28;20172;-56
2022/05/18 05:38:57;;;;;;;5.90;5.30;;;17.30;99.90;;;;;;5010221;28;20545;-58
2022/05/18 05:41:23;;;;;;;5.10;4.63;;;17.30;99.90;;;;;;5010577;28;20184;-56
2022/05/18 05:43:48;;;;;;;5.73;4.73;;;17.30;99.90;;;;;;5008490;28;20718;-58
2022/05/18 05:46:14;;;;;;;4.30;3.90;;;17.30;99.90;;;;;;5012165;28;20311;-58
2022/05/18 05:48:42;;;;;;;5.27;4.63;;;17.30;99.90;;;;;;5026885;28;20179;-60
2022/05/18 05:51:13;;;;;;;4.63;4.20;;;17.30;99.90;;;;;;5012644;28;20199;-57
2022/05/18 05:53:43;;;;;;;4.70;4.07;;;17.20;99.90;;;;;;5012365;28;20184;-57
2022/05/18 05:56:10;;;;;;;4.80;4.23;;;17.30;99.90;;;;;;5012222;28;20183;-59
2022/05/18 05:58:37;;;;;;;4.53;3.80;;;17.20;99.90;;;;;;5012436;28;20531;-58
2022/05/18 06:01:05;;;;;;;5.10;4.20;;;17.40;99.90;;;;;;5012460;28;20211;-59
2022/05/18 06:03:32;;;;;;;4.00;3.60;;;17.40;99.90;;;;;;5012054;28;20609;-60
2022/05/18 06:05:57;;;;;;;4.77;4.00;;;17.50;99.90;;;;;;5019523;28;20213;-57
2022/05/18 06:08:24;;;;;;;4.33;3.83;;;17.50;99.90;;;;;;5012045;28;20535;-57
2022/05/18 06:10:50;;;;;;;5.47;3.90;;;17.30;99.90;;;;;;5012165;28;20264;-57
2022/05/18 06:13:15;;;;;;;6.67;4.70;;;17.30;99.90;;;;;;5012165;28;20637;-64
2022/05/18 06:15:41;;;;;;;5.33;4.17;;;17.40;99.90;;;;;;5024223;28;20179;-62
2022/05/18 06:18:07;;;;;;;4.40;4.00;;;17.40;99.90;;;;;;5026284;28;20252;-62
2022/05/18 06:20:44;;;;;;;4.87;3.90;;;17.50;99.90;;;;;;5010529;28;20276;-63
2022/05/18 06:23:10;;;;;;;4.27;3.87;;;17.40;99.90;;;;;;5010462;28;20194;-63
2022/05/18 06:25:37;;;;;;;3.53;3.20;;;17.60;99.90;;;;;;5011490;28;20680;-62
2022/05/18 06:28:07;;;;;;;4.00;3.60;;;17.60;99.90;;;;;;5011551;28;20653;-62
2022/05/18 06:30:33;;;;;;;3.97;3.57;;;17.70;99.90;;;;;;5011153;28;20187;-64
2022/05/18 06:32:58;;;;;;;3.87;3.40;;;17.80;99.90;;;;;;5012308;28;20173;-63
2022/05/18 06:35:25;;;;;;;3.30;3.00;;;18.00;99.90;;;;;;5011511;28;20175;-59
2022/05/18 06:37:50;;;;;;;3.40;3.10;;;18.10;99.90;;;;;;4994271;28;20187;-60
2022/05/18 06:40:17;;;;;;;5.53;3.30;;;18.10;99.90;;;;;;5012021;28;20195;-63
2022/05/18 06:42:43;;;;;;;4.87;3.20;;;18.10;99.90;;;;;;5012161;28;20184;-60
2022/05/18 06:45:11;;;;;;;3.30;3.00;;;17.90;99.90;;;;;;5011675;28;20207;-63
2022/05/18 06:47:37;;;;;;;3.70;2.80;;;17.80;99.90;;;;;;5011953;28;20180;-58
2022/05/18 06:50:05;;;;;;;3.47;3.07;;;17.80;99.90;;;;;;5011876;28;20189;-62
2022/05/18 06:52:31;;;;;;;3.30;2.97;;;17.90;99.90;;;;;;5011845;28;20183;-60
2022/05/18 06:54:56;;;;;;;4.47;3.20;;;17.80;99.90;;;;;;5011675;28;20180;-62
2022/05/18 06:57:22;;;;;;;3.93;2.87;;;17.70;99.90;;;;;;5011723;28;20653;-62
2022/05/18 06:59:47;;;;;;;4.93;2.80;;;17.90;99.90;;;;;;5011694;28;20204;-61
2022/05/18 07:02:13;;;;;;;3.60;2.80;;;17.90;99.90;;;;;;5011871;28;20223;-59
2022/05/18 07:04:39;;;;;;;5.20;2.90;;;18.00;99.90;;;;;;5011410;28;20678;-60
2022/05/18 07:07:04;;;;;;;2.97;2.57;;;18.30;99.90;;;;;;5011730;28;20196;-63
2022/05/18 07:09:30;;;;;;;4.47;2.60;;;18.40;99.90;;;;;;4993902;28;20262;-62
2022/05/18 07:11:56;;;;;;;2.97;2.57;;;18.40;99.90;;;;;;5011838;28;20669;-56
2022/05/18 07:14:25;;;;;;;2.97;2.67;;;18.50;99.90;;;;;;5011369;28;20171;-59
2022/05/18 07:16:50;;;;;;;3.40;2.53;;;18.60;99.90;;;;;;5011500;28;20192;-60
2022/05/18 07:19:18;;;;;;;2.30;2.10;;;18.70;99.90;;;;;;5011515;28;20196;-60
2022/05/18 07:21:44;;;;;;;2.17;1.97;;;18.90;99.90;;;;;;4996475;28;20175;-63
2022/05/18 07:24:10;;;;;;;2.60;2.17;;;19.00;99.90;;;;;;5015344;28;20180;-60
2022/05/18 07:26:37;;;;;;;2.97;2.40;;;19.20;99.90;;;;;;5015566;28;20204;-62
2022/05/18 07:29:05;;;;;;;2.00;1.90;;;19.30;99.90;;;;;;5015494;28;20267;-62
2022/05/18 07:32:08;;;;;;;5.77;2.40;;;19.20;99.90;;;;;;5015575;28;20646;-63
2022/05/18 07:34:16;;;;;;;4.50;2.70;;;19.20;99.90;;;;;;5015057;28;20608;-64
2022/05/18 07:36:42;;;;;;;4.90;2.23;;;19.50;99.90;;;;;;5015398;28;20177;-61
2022/05/18 07:39:07;;;;;;;3.77;2.13;;;19.60;99.90;;;;;;4997774;28;20279;-62
2022/05/18 07:41:33;;;;;;;1.83;1.67;;;19.60;99.90;;;;;;5015400;28;20202;-62
2022/05/18 07:43:58;;;;;;;3.53;2.00;;;19.70;99.90;;;;;;4997616;28;20526;-59
2022/05/18 07:46:24;;;;;;;2.67;2.07;;;19.70;99.90;;;;;;5015377;28;20745;-60
2022/05/18 07:48:49;;;;;;;2.63;1.90;;;19.80;99.90;;;;;;5015085;28;20176;-63
2022/05/18 07:51:15;;;;;;;2.77;1.97;;;19.80;99.90;;;;;;5015108;28;20234;-59
2022/05/18 07:53:41;;;;;;;3.53;2.07;;;20.00;99.90;;;;;;5014845;28;20172;-60
2022/05/18 07:56:06;;;;;;;5.30;2.10;;;20.20;99.90;;;;;;5014939;28;20208;-60
2022/05/18 07:58:32;;;;;;;2.27;1.97;;;20.20;99.90;;;;;;5014974;28;20176;-61
2022/05/18 08:00:58;;;;;;;3.13;2.03;;;20.10;99.90;;;;;;4997453;28;20200;-61
2022/05/18 08:03:24;;;;;;;2.53;1.87;;;20.10;99.90;;;;;;5014732;28;20255;-60
2022/05/18 08:05:50;;;;;;;2.83;1.90;;;20.00;99.90;;;;;;5014705;28;20196;-60
2022/05/18 08:08:19;;;;;;;2.50;2.20;;;20.10;99.90;;;;;;5014714;28;20169;-62
2022/05/18 08:16:13;;;;;;;3.27;1.80;;;20.50;99.90;;;;;;5015239;28;20264;-61
2022/05/18 08:18:39;;;;;;;2.53;1.97;;;20.60;99.90;;;;;;5014570;28;20255;-61
2022/05/18 08:21:05;;;;;;;2.90;1.75;;;20.50;99.90;;;;;;5014429;28;20224;-59
2022/05/18 08:23:31;;;;;;;3.50;1.85;;;20.60;99.90;;;;;;5014301;28;20200;-55
2022/05/18 08:25:57;;;;;;;3.35;2.00;;;20.70;99.90;;;;;;5014427;28;20692;-62
2022/05/18 08:28:23;;;;;;;2.28;1.80;;;20.90;99.90;;;;;;5014491;28;20171;-62
2022/05/18 08:30:49;;;;;;;3.10;1.83;;;21.00;99.90;;;;;;5014329;28;20557;-60
2022/05/18 08:33:15;;;;;;;3.03;2.03;;;21.10;99.90;;;;;;5014164;28;20197;-63
2022/05/18 08:35:44;;;;;;;2.63;1.92;;;21.10;99.90;;;;;;5014064;28;20229;-62
2022/05/18 08:38:10;;;;;;;2.88;2.20;;;21.00;99.80;;;;;;5014392;28;20243;-60
2022/05/18 08:40:51;;;;;;;2.58;2.30;;;21.00;99.90;;;;;;5014194;28;20201;-60
2022/05/18 08:43:39;;;;;;;3.72;2.40;;;21.10;99.90;;;;;;5014289;28;20546;-62
2022/05/18 08:46:39;;;;;;;3.85;2.13;;;21.40;99.90;;;;;;5013986;28;20851;-59
2022/05/18 08:49:31;;;;;;;4.07;1.95;;;21.30;99.90;;;;;;5014102;28;20274;-63
2022/05/18 08:52:14;;;;;;;2.45;1.90;;;21.50;99.90;;;;;;5014172;28;20174;-59
2022/05/18 08:55:04;;;;;;;2.80;2.20;;;21.60;99.90;;;;;;5013794;28;20168;-64
2022/05/18 08:57:35;;;;;;;2.25;1.90;;;21.50;99.90;;;;;;5012001;28;20194;-62
2022/05/18 09:00:18;;;;;;;2.78;1.90;;;21.60;99.90;;;;;;5011382;28;20671;-59
2022/05/18 09:02:44;;;;;;;1.92;1.73;;;21.50;99.90;;;;;;5019724;28;20183;-59
2022/05/18 09:05:22;;;;;;;2.85;2.05;;;21.50;99.90;;;;;;5013419;28;20229;-64
2022/05/18 09:08:02;;;;;;;2.90;1.88;;;21.60;99.90;;;;;;5013863;28;20930;-62
2022/05/18 09:10:49;;;;;;;3.17;2.00;;;21.80;99.70;;;;;;5028671;28;20361;-60
2022/05/18 09:13:15;;;;;;;2.30;1.98;;;21.80;99.10;;;;;;5013297;28;20922;-61
2022/05/18 09:15:53;;;;;;;3.30;2.00;;;21.70;99.40;;;;;;4994744;28;20186;-63
2022/05/18 09:18:31;;;;;;;3.28;1.88;;;21.60;99.50;;;;;;4994123;28;20586;-63
2022/05/18 09:21:38;;;;;;;3.58;2.28;;;21.60;99.90;;;;;;5011478;28;20202;-61
2022/05/18 09:24:20;;;;;;;2.33;1.77;;;21.90;99.90;;;;;;5005112;28;20225;-62
2022/05/18 09:26:51;;;;;;;2.85;2.03;;;22.10;99.90;;;;;;5016947;28;20704;-61
2022/05/18 09:29:44;;;;;;;3.97;2.08;;;22.20;99.50;;;;;;5019182;28;20192;-62
2022/05/18 09:32:30;;;;;;;4.43;2.47;;;22.10;98.90;;;;;;5030414;28;20275;-62
2022/05/18 09:35:23;;;;;;;2.30;1.88;;;22.10;98.50;;;;;;5013183;28;20580;-63
2022/05/18 09:38:04;;;;;;;2.05;1.85;;;22.20;99.60;;;;;;5015774;28;20173;-62
2022/05/18 09:40:37;;;;;;;3.08;2.10;;;22.50;99.30;;;;;;5013173;28;20188;-61
2022/05/18 09:43:18;;;;;;;5.82;2.35;;;22.60;97.60;;;;;;5026107;28;20645;-65
2022/05/18 09:45:47;;;;;;;3.13;1.80;;;22.60;98.70;;;;;;5032676;28;20306;-62
2022/05/18 09:48:52;;;;;;;2.00;1.80;;;22.80;98.60;;;;;;5024714;28;20544;-63
2022/05/18 09:51:18;;;;;;;2.30;2.08;;;22.80;97.00;;;;;;4932713;29;20234;-62
2022/05/18 09:53:44;;;;;;;2.90;2.30;;;22.90;98.00;;;;;;4932503;29;20183;-63
2022/05/18 09:56:21;;;;;;;4.13;2.05;;;22.90;97.50;;;;;;4932975;29;20187;-61
2022/05/18 09:58:48;;;;;;;2.13;1.75;;;23.00;97.40;;;;;;4933032;29;20615;-61
2022/05/18 10:09:41;;;;;;;2.38;2.15;;;23.30;96.50;;;;;;4933014;29;20263;-62
2022/05/18 10:12:23;;;;;;;2.17;1.95;;;23.40;96.50;;;;;;4932420;29;20254;-60
2022/05/18 10:14:57;;;;;;;2.45;1.80;;;23.10;95.40;;;;;;4932033;29;20328;-64
2022/05/18 10:17:35;;;;;;;2.30;1.60;;;22.90;96.10;;;;;;4932347;29;20175;-62
2022/05/18 10:20:19;;;;;;;3.15;1.88;;;22.90;97.60;;;;;;4932420;29;20207;-62
2022/05/18 10:22:46;;;;;;;3.63;1.73;;;23.30;97.00;;;;;;4932884;29;20176;-63
2022/05/18 10:25:22;;;;;;;2.13;1.60;;;23.60;95.90;;;;;;4932307;29;20236;-63
2022/05/18 10:27:48;;;;;;;2.08;1.52;;;23.90;95.40;;;;;;4985395;28;20185;-63
2022/05/18 10:30:34;;;;;;;3.60;2.13;;;24.00;95.10;;;;;;4992551;28;20280;-59
2022/05/18 10:33:03;;;;;;;2.95;1.90;;;23.80;93.00;;;;;;4992783;28;20180;-60
2022/05/18 10:35:44;;;;;;;2.45;1.63;;;23.90;94.90;;;;;;5006587;28;20596;-59
2022/05/18 10:38:24;;;;;;;2.25;1.60;;;23.90;96.60;;;;;;5019096;28;20169;-60
2022/05/18 10:41:16;;;;;;;3.72;1.73;;;24.10;95.90;;;;;;5031940;28;20191;-56
2022/05/18 10:43:57;;;;;;;3.22;2.17;;;24.20;94.10;;;;;;5031127;28;20544;-62
2022/05/18 10:46:34;;;;;;;2.80;2.17;;;23.90;94.70;;;;;;5031568;28;20556;-60
2022/05/18 10:49:24;;;;;;;2.30;1.73;;;23.90;93.90;;;;;;5031724;28;20513;-60
2022/05/18 10:51:49;;;;;;;2.47;1.60;;;23.90;95.00;;;;;;5031795;28;20172;-64
2022/05/18 10:54:29;;;;;;;2.42;1.58;;;23.80;94.10;;;;;;5031497;28;20625;-59
2022/05/18 10:57:09;;;;;;;2.65;1.77;;;23.70;94.50;;;;;;5030943;28;20171;-56
2022/05/18 10:59:48;;;;;;;2.33;1.58;;;23.80;94.50;;;;;;5031580;28;20681;-61
2022/05/18 11:02:24;;;;;;;3.30;1.75;;;24.20;95.10;;;;;;5031743;28;20176;-58
2022/05/18 11:05:19;;;;;;;4.75;2.30;;;24.50;94.60;;;;;;5042994;28;20964;-60
2022/05/18 11:07:46;;;;;;;2.53;1.95;;;24.30;93.00;;;;;;5003751;28;20493;-61
2022/05/18 11:10:12;;;;;;;2.78;2.05;;;24.40;94.30;;;;;;5031440;28;20203;-60
2022/05/18 11:12:44;;;;;;;2.03;1.55;;;24.50;93.40;;;;;;5030704;28;20180;-61
2022/05/18 11:15:50;;;;;;;3.58;1.88;;;24.40;93.50;;;;;;5031041;28;20667;-62
2022/05/18 11:18:28;;;;;;;2.55;1.65;;;24.50;92.50;;;;;;5031509;28;20175;-62
2022/05/18 11:21:19;;;;;;;2.00;1.80;;;24.50;93.40;;;;;;5031234;28;20206;-60
2022/05/18 11:24:07;;;;;;;2.03;1.73;;;24.80;94.50;;;;;;5046592;28;20556;-58
2022/05/18 11:26:43;;;;;;;3.35;1.70;;;24.60;93.80;;;;;;5031180;28;20195;-58
2022/05/18 11:29:29;;;;;;;1.70;1.60;;;24.50;94.30;;;;;;5031035;28;20188;-59
2022/05/18 11:32:13;;;;;;;1.63;1.52;;;24.40;93.20;;;;;;5031184;28;20251;-61
2022/05/18 11:34:59;;;;;;;3.50;1.65;;;24.60;93.10;;;;;;5036631;28;20176;-61
2022/05/18 11:37:45;;;;;;;2.00;1.85;;;24.40;92.20;;;;;;5017358;28;20172;-63
2022/05/18 11:40:32;;;;;;;1.83;1.60;;;24.30;93.00;;;;;;5019826;28;20192;-61
2022/05/18 11:43:32;;;;;;;3.25;1.98;;;24.50;93.80;;;;;;5019936;28;20187;-64
2022/05/18 11:46:31;;;;;;;3.22;1.90;;;24.70;91.20;;;;;;5020121;28;20242;-60
2022/05/18 11:49:16;;;;;;;3.33;1.77;;;24.60;91.80;;;;;;5012988;28;20177;-58
2022/05/18 11:52:03;;;;;;;3.15;1.77;;;24.70;92.60;;;;;;5011481;28;20173;-59
2022/05/18 11:54:55;;;;;;;2.42;1.67;;;24.90;91.60;;;;;;5009991;28;20180;-63
2022/05/18 11:58:06;;;;;;;4.38;1.90;;;24.80;91.80;;;;;;5010766;28;20235;-60
2022/05/18 12:00:55;;;;;;;3.58;1.80;;;24.80;91.80;;;;;;5011148;28;20220;-60
2022/05/18 12:03:57;;;;;;;2.28;1.90;;;24.70;89.10;;;;;;4993676;28;20230;-61
2022/05/18 12:06:25;;;;;;;3.17;2.10;;;24.30;90.20;;;;;;5011477;28;20243;-60
2022/05/18 12:09:32;;;;;;;4.30;1.85;;;24.30;91.90;;;;;;5014578;28;20216;-64
2022/05/18 12:12:29;;;;;;;5.65;2.45;;;24.60;92.50;;;;;;5017201;28;20184;-63
2022/05/18 12:15:18;;;;;;;3.00;2.00;;;24.60;92.60;;;;;;5014661;28;20168;-63
2022/05/18 12:17:57;;;;;;;4.13;1.95;;;24.70;92.80;;;;;;5014958;28;20169;-57
2022/05/18 12:20:39;;;;;;;2.50;2.00;;;24.80;92.70;;;;;;5014629;28;20204;-60
2022/05/18 12:23:12;;;;;;;3.53;2.00;;;25.00;93.50;;;;;;5045268;23;20227;-59
2022/05/18 12:25:38;;;;;;;4.85;2.17;;;25.00;93.30;;;;;;5033160;28;20692;-60
2022/05/18 12:28:06;;;;;;;3.78;2.45;;;25.00;90.60;;;;;;5033885;28;20172;-59
2022/05/18 12:30:34;;;;;;;3.08;1.85;;;24.90;90.20;;;;;;5033962;28;20168;-60
2022/05/18 12:33:02;;;;;;;4.47;2.30;;;24.70;90.80;;;;;;5034084;28;20215;-58
2022/05/18 12:35:46;;;;;;;3.33;2.10;;;24.70;92.10;;;;;;5033599;28;20168;-60
2022/05/18 12:38:25;;;;;;;2.35;1.77;;;24.80;92.40;;;;;;5033936;28;20184;-60
2022/05/18 12:41:10;;;;;;;4.28;2.00;;;25.00;92.70;;;;;;5033751;28;20183;-60
2022/05/18 12:43:48;;;;;;;3.03;2.00;;;25.00;91.70;;;;;;5015619;28;20252;-58
2022/05/18 12:46:16;;;;;;;2.00;1.90;;;25.10;91.80;;;;;;5033764;28;20202;-58
2022/05/18 12:48:54;;;;;;;3.65;2.10;;;25.10;91.40;;;;;;5033740;28;20173;-59
2022/05/18 12:51:25;;;;;;;3.60;2.05;;;25.00;90.90;;;;;;5015753;28;20580;-60
2022/05/18 12:53:50;;;;;;;7.25;2.15;;;25.10;92.00;;;;;;5033215;28;20242;-60
2022/05/18 12:56:23;;;;;;;3.03;1.83;;;25.40;92.30;;;;;;5033527;28;20176;-60
2022/05/18 12:58:59;;;;;;;2.47;1.92;;;25.50;92.50;;;;;;5024407;28;20191;-60
2022/05/18 13:01:29;;;;;;;2.13;1.80;;;25.70;91.00;;;;;;5022998;28;20168;-60
2022/05/18 13:04:01;;;;;;;3.38;2.05;;;25.60;91.70;;;;;;5021583;28;20545;-60
2022/05/18 13:06:36;;;;;;;3.38;2.00;;;25.70;91.60;;;;;;5022521;28;20227;-60
2022/05/18 13:09:04;;;;;;;4.63;2.15;;;25.80;91.40;;;;;;5013390;28;20227;-58
2022/05/18 13:11:39;;;;;;;2.80;2.25;;;25.80;90.60;;;;;;5013501;28;20172;-59
2022/05/18 13:14:34;;;;;;;1.75;1.65;;;25.80;89.30;;;;;;5012869;28;20192;-60
2022/05/18 13:17:04;;;;;;;2.05;1.85;;;25.80;92.00;;;;;;5013121;28;20235;-60
2022/05/18 13:19:33;;;;;;;3.83;2.00;;;25.90;91.50;;;;;;5012344;28;20173;-59
2022/05/18 13:22:16;;;;;;;2.60;2.20;;;26.10;91.10;;;;;;5013334;28;20168;-59
2022/05/18 13:24:58;;;;;;;2.90;2.20;;;26.20;91.00;;;;;;5012774;28;20195;-61